Time;durP1;ratioP1;P1;durP2;ratioP2;P2;SDS_P1;SDS_P2;PMS_P1;PMS_P2;Temp;Humidity;BMP_temperature;BMP_pressure;BME280_temperature;BME280_humidity;BME280_pressure;Samples;Min_cycle;Max_cycle;Signal;HPM_P1;HPM_P2
2022/01/06 00:00:37;;;;;;;0.38;0.15;;;5.60;90.50;;;;;;5014433;28;20034;-81
2022/01/06 00:03:03;;;;;;;0.85;0.28;;;5.80;90.20;;;;;;5013963;28;20428;-80
2022/01/06 00:05:29;;;;;;;0.20;0.20;;;5.90;88.80;;;;;;5012203;28;20021;-80
2022/01/06 00:07:55;;;;;;;0.43;0.43;;;5.70;90.20;;;;;;4995976;28;20037;-80
2022/01/06 00:10:21;;;;;;;0.20;0.20;;;5.80;90.20;;;;;;5014231;28;20054;-81
2022/01/06 00:13:03;;;;;;;1.80;0.45;;;5.60;89.80;;;;;;4996097;28;20116;-81
2022/01/06 00:15:55;;;;;;;0.10;0.10;;;5.60;90.60;;;;;;5014089;28;20054;-81
2022/01/06 00:18:33;;;;;;;0.13;0.13;;;5.50;90.90;;;;;;5014475;28;20022;-81
2022/01/06 00:23:43;;;;;;;1.38;0.40;;;5.90;90.50;;;;;;4999426;28;20102;-80
2022/01/06 00:26:09;;;;;;;0.17;0.17;;;5.80;90.70;;;;;;4995682;28;20022;-80
2022/01/06 00:28:37;;;;;;;0.50;0.20;;;5.90;90.70;;;;;;5012884;28;20080;-79
2022/01/06 00:31:03;;;;;;;0.20;0.20;;;6.00;90.60;;;;;;5013163;28;20022;-80
2022/01/06 00:33:31;;;;;;;0.60;0.20;;;6.10;90.60;;;;;;5012735;28;20042;-80
2022/01/06 00:35:58;;;;;;;0.52;0.28;;;6.30;90.30;;;;;;5012955;28;20470;-79
2022/01/06 00:38:25;;;;;;;0.30;0.20;;;6.30;90.20;;;;;;4995397;28;20042;-80
2022/01/06 00:40:51;;;;;;;0.32;0.30;;;6.40;90.10;;;;;;4995146;28;20018;-79
2022/01/06 00:43:17;;;;;;;0.10;0.10;;;6.30;90.00;;;;;;4995174;28;20390;-79
2022/01/06 00:45:43;;;;;;;0.10;0.10;;;6.40;90.20;;;;;;5013294;28;20030;-80
2022/01/06 00:48:10;;;;;;;0.20;0.20;;;6.50;90.00;;;;;;5012953;28;20117;-80
2022/01/06 00:50:37;;;;;;;0.20;0.20;;;6.60;89.80;;;;;;4995659;28;20021;-79
2022/01/06 00:53:04;;;;;;;0.30;0.17;;;6.60;89.70;;;;;;5012760;28;20037;-79
2022/01/06 00:55:31;;;;;;;0.63;0.30;;;6.30;89.80;;;;;;5012729;28;20030;-80
2022/01/06 00:57:57;;;;;;;0.65;0.20;;;6.20;90.10;;;;;;4995549;28;20096;-80
2022/01/06 01:00:27;;;;;;;0.20;0.20;;;6.20;90.50;;;;;;5013681;28;20105;-82
2022/01/06 01:02:53;;;;;;;0.10;0.10;;;6.20;90.80;;;;;;5013772;28;20165;-79
2022/01/06 01:05:19;;;;;;;3.30;0.50;;;6.20;90.80;;;;;;5012891;28;20022;-79
2022/01/06 01:07:45;;;;;;;0.20;0.10;;;6.40;90.60;;;;;;5013630;28;20033;-79
2022/01/06 01:10:11;;;;;;;0.57;0.17;;;6.40;90.30;;;;;;5013393;28;20382;-78
2022/01/06 01:12:37;;;;;;;0.52;0.15;;;6.20;90.70;;;;;;5012935;28;20042;-78
2022/01/06 01:15:08;;;;;;;0.75;0.38;;;6.30;90.60;;;;;;4995300;28;20022;-78
2022/01/06 01:17:34;;;;;;;0.20;0.20;;;6.40;90.30;;;;;;4994967;28;20034;-79
2022/01/06 01:20:02;;;;;;;0.10;0.10;;;6.50;90.20;;;;;;4995470;28;20053;-79
2022/01/06 01:22:27;;;;;;;0.10;0.10;;;6.50;90.10;;;;;;4995537;28;20041;-79
2022/01/06 01:24:53;;;;;;;0.10;0.10;;;6.60;90.20;;;;;;5013379;28;20047;-79
2022/01/06 01:27:23;;;;;;;0.15;0.10;;;6.40;90.30;;;;;;5012584;28;20044;-79
2022/01/06 01:30:03;;;;;;;0.90;0.20;;;6.40;90.50;;;;;;5012710;28;20026;-79
2022/01/06 01:32:33;;;;;;;0.10;0.10;;;6.50;90.40;;;;;;4995235;28;20038;-78
2022/01/06 01:35:01;;;;;;;0.22;0.10;;;6.50;90.20;;;;;;5012742;28;20032;-78
2022/01/06 01:37:31;;;;;;;0.22;0.20;;;6.60;90.10;;;;;;5012995;28;20034;-79
2022/01/06 01:39:57;;;;;;;0.35;0.25;;;6.60;89.60;;;;;;5013347;28;20450;-79
2022/01/06 01:42:25;;;;;;;0.10;0.10;;;6.60;90.20;;;;;;5013086;28;20069;-79
2022/01/06 01:44:51;;;;;;;0.10;0.10;;;6.70;90.10;;;;;;5012656;28;20029;-78
2022/01/06 01:47:29;;;;;;;0.10;0.10;;;6.50;90.10;;;;;;5012819;28;20062;-79
2022/01/06 01:50:09;;;;;;;0.55;0.10;;;6.60;90.20;;;;;;5012395;28;20018;-78
2022/01/06 01:52:35;;;;;;;;;;;6.60;90.20;;;;;;5013153;28;20030;-78
2022/01/06 01:55:01;;;;;;;0.38;0.20;;;6.60;90.00;;;;;;5011421;28;19988;-79
2022/01/06 01:57:27;;;;;;;0.20;0.20;;;6.50;90.10;;;;;;5011723;28;20103;-80
2022/01/06 01:59:52;;;;;;;0.10;0.10;;;6.60;90.10;;;;;;4994984;28;20033;-80
2022/01/06 02:02:18;;;;;;;0.47;0.10;;;6.50;90.20;;;;;;5012535;28;20029;-79
2022/01/06 02:04:43;;;;;;;0.10;0.10;;;6.50;90.20;;;;;;5012796;28;20466;-80
2022/01/06 02:07:09;;;;;;;0.10;0.10;;;6.60;90.00;;;;;;5016287;28;20113;-79
2022/01/06 02:09:35;;;;;;;0.10;0.10;;;6.70;90.00;;;;;;5015553;28;20417;-79
2022/01/06 02:12:01;;;;;;;0.10;0.10;;;6.90;90.00;;;;;;4998517;28;20022;-80
2022/01/06 02:14:27;;;;;;;0.10;0.10;;;6.90;89.60;;;;;;4998241;28;20034;-79
2022/01/06 02:16:54;;;;;;;0.10;0.10;;;6.90;89.40;;;;;;4998278;28;20529;-79
2022/01/06 02:19:20;;;;;;;0.20;0.20;;;6.90;89.50;;;;;;5015764;28;20037;-79
2022/01/06 02:21:45;;;;;;;0.10;0.10;;;6.70;89.80;;;;;;5015966;28;20030;-79
2022/01/06 02:24:11;;;;;;;0.32;0.20;;;6.80;89.90;;;;;;5015658;28;20423;-79
2022/01/06 02:26:37;;;;;;;0.10;0.10;;;6.80;89.80;;;;;;5015955;28;20033;-79
2022/01/06 02:29:03;;;;;;;0.13;0.10;;;6.80;90.10;;;;;;5016042;28;20040;-80
2022/01/06 02:31:42;;;;;;;0.15;0.15;;;6.90;89.60;;;;;;5015083;28;20066;-80
2022/01/06 02:34:08;;;;;;;0.20;0.20;;;7.00;89.50;;;;;;5015468;28;20045;-78
2022/01/06 02:36:34;;;;;;;0.10;0.10;;;7.00;89.40;;;;;;5015320;28;20424;-78
2022/01/06 02:39:00;;;;;;;0.10;0.10;;;7.10;89.40;;;;;;4997887;28;20385;-79
2022/01/06 02:41:26;;;;;;;0.20;0.20;;;7.10;89.20;;;;;;5008697;28;20030;-78
2022/01/06 02:43:52;;;;;;;0.55;0.30;;;7.10;88.50;;;;;;5008299;28;20022;-78
2022/01/06 02:46:17;;;;;;;0.20;0.20;;;7.10;88.90;;;;;;5010670;28;20037;-77
2022/01/06 02:48:43;;;;;;;1.00;0.28;;;7.20;89.00;;;;;;4996851;28;20033;-78
2022/01/06 02:51:08;;;;;;;0.10;0.10;;;7.20;89.20;;;;;;5014740;28;20026;-78
2022/01/06 02:53:34;;;;;;;0.13;0.13;;;7.20;89.20;;;;;;5014282;28;20018;-78
2022/01/06 02:56:00;;;;;;;0.10;0.10;;;7.30;88.80;;;;;;5010631;28;20418;-78
2022/01/06 02:58:26;;;;;;;0.95;0.55;;;7.30;88.70;;;;;;4996730;28;20103;-79
2022/01/06 03:00:52;;;;;;;3.13;0.32;;;7.30;88.60;;;;;;5014072;28;20076;-79
2022/01/06 03:03:18;;;;;;;0.38;0.20;;;7.20;87.70;;;;;;5014575;28;20033;-78
2022/01/06 03:05:44;;;;;;;0.32;0.10;;;7.20;87.90;;;;;;5014735;28;20026;-78
2022/01/06 03:08:10;;;;;;;0.20;0.20;;;7.20;88.60;;;;;;5014470;28;20038;-79
2022/01/06 03:10:41;;;;;;;0.20;0.20;;;7.20;88.70;;;;;;5014363;28;20028;-79
2022/01/06 03:13:06;;;;;;;0.50;0.20;;;7.30;88.90;;;;;;5014532;28;20034;-79
2022/01/06 03:15:32;;;;;;;0.17;0.17;;;7.30;89.00;;;;;;5015057;28;20025;-79
2022/01/06 03:17:58;;;;;;;0.20;0.20;;;7.30;88.60;;;;;;4996848;28;20072;-79
2022/01/06 03:20:26;;;;;;;0.20;0.20;;;7.30;88.60;;;;;;5014176;28;20508;-78
2022/01/06 03:22:54;;;;;;;0.30;0.30;;;7.40;88.60;;;;;;4996269;28;20038;-79
2022/01/06 03:25:19;;;;;;;0.17;0.17;;;7.40;88.80;;;;;;5014062;28;20080;-79
2022/01/06 03:27:45;;;;;;;0.30;0.30;;;7.40;89.00;;;;;;5014503;28;20034;-79
2022/01/06 03:30:14;;;;;;;0.30;0.30;;;7.40;88.90;;;;;;4996410;28;20123;-79
2022/01/06 03:32:40;;;;;;;0.35;0.35;;;7.50;88.70;;;;;;5014245;28;20064;-79
2022/01/06 03:35:08;;;;;;;0.40;0.40;;;7.50;88.40;;;;;;5014349;28;20064;-79
2022/01/06 03:37:34;;;;;;;0.40;0.40;;;7.50;88.40;;;;;;5014266;28;20102;-79
2022/01/06 03:40:04;;;;;;;0.90;0.60;;;7.50;88.60;;;;;;5014349;28;20026;-79
2022/01/06 03:42:31;;;;;;;0.50;0.47;;;7.60;88.70;;;;;;5003824;28;20032;-78
2022/01/06 03:44:58;;;;;;;0.70;0.60;;;7.60;88.80;;;;;;5014033;28;20026;-78
2022/01/06 03:47:23;;;;;;;1.08;0.63;;;7.60;88.90;;;;;;5013772;28;20045;-78
2022/01/06 03:49:51;;;;;;;0.70;0.57;;;7.50;88.40;;;;;;5013847;28;20017;-75
2022/01/06 03:52:16;;;;;;;0.75;0.50;;;7.50;88.50;;;;;;5013742;28;20030;-75
2022/01/06 03:54:42;;;;;;;1.02;0.70;;;7.60;88.60;;;;;;4995545;28;20026;-75
2022/01/06 03:57:08;;;;;;;0.77;0.55;;;7.60;88.70;;;;;;5013413;28;20045;-75
2022/01/06 03:59:34;;;;;;;1.27;0.93;;;7.60;88.80;;;;;;5013827;28;20470;-76
2022/01/06 04:01:59;;;;;;;0.80;0.80;;;7.60;88.40;;;;;;5013377;28;20549;-75
2022/01/06 04:04:25;;;;;;;0.70;0.60;;;7.60;88.50;;;;;;5013794;28;20197;-74
2022/01/06 04:06:51;;;;;;;0.90;0.80;;;7.60;88.40;;;;;;4995487;28;20026;-75
2022/01/06 04:09:17;;;;;;;1.23;0.90;;;7.60;88.30;;;;;;5014080;28;20030;-76
2022/01/06 04:11:43;;;;;;;1.00;0.90;;;7.60;88.20;;;;;;5013421;28;20444;-75
2022/01/06 04:14:08;;;;;;;1.33;1.02;;;7.60;88.00;;;;;;5013879;28;20034;-75
2022/01/06 04:16:36;;;;;;;1.63;1.38;;;7.60;88.30;;;;;;5013108;28;20451;-76
2022/01/06 04:19:02;;;;;;;1.25;1.05;;;7.60;88.30;;;;;;5013954;28;20095;-75
2022/01/06 04:21:28;;;;;;;1.67;1.25;;;7.60;88.40;;;;;;5013205;28;20474;-76
2022/01/06 04:23:54;;;;;;;1.77;1.67;;;7.40;88.00;;;;;;5013347;28;20044;-76
2022/01/06 04:26:22;;;;;;;1.75;1.13;;;7.40;88.50;;;;;;4995392;28;20041;-76
2022/01/06 04:28:48;;;;;;;1.10;1.00;;;7.30;88.80;;;;;;5004936;28;20037;-77
2022/01/06 04:31:14;;;;;;;1.73;0.65;;;7.30;89.00;;;;;;5013083;28;20378;-77
2022/01/06 04:33:40;;;;;;;0.90;0.60;;;7.30;89.10;;;;;;5012969;28;20025;-78
2022/01/06 04:36:06;;;;;;;0.70;0.57;;;7.30;89.20;;;;;;5013219;28;20519;-79
2022/01/06 04:38:33;;;;;;;0.68;0.50;;;7.30;89.90;;;;;;5013110;28;20032;-79
2022/01/06 04:40:59;;;;;;;0.50;0.50;;;7.40;89.60;;;;;;5009861;28;20041;-80
2022/01/06 04:43:25;;;;;;;0.45;0.40;;;7.30;89.40;;;;;;4995383;28;20034;-78
2022/01/06 04:45:51;;;;;;;0.95;0.40;;;7.40;89.50;;;;;;5003283;28;20076;-79
2022/01/06 04:48:16;;;;;;;0.60;0.20;;;7.40;89.40;;;;;;5013134;28;20101;-79
2022/01/06 04:50:43;;;;;;;0.22;0.22;;;7.40;89.40;;;;;;4995086;28;20089;-79
2022/01/06 04:53:09;;;;;;;0.22;0.22;;;7.40;89.40;;;;;;5012904;28;20042;-78
2022/01/06 04:55:35;;;;;;;0.40;0.30;;;7.40;89.50;;;;;;5012652;28;20050;-79
2022/01/06 04:58:01;;;;;;;0.30;0.30;;;7.40;89.50;;;;;;5012866;28;20038;-79
2022/01/06 05:00:27;;;;;;;0.30;0.30;;;7.40;89.50;;;;;;5013064;28;20034;-79
2022/01/06 05:02:52;;;;;;;0.40;0.35;;;7.40;89.40;;;;;;5012352;28;20437;-79
2022/01/06 05:05:18;;;;;;;0.63;0.50;;;7.30;88.90;;;;;;4988984;28;20041;-79
2022/01/06 05:07:44;;;;;;;0.30;0.30;;;7.30;89.30;;;;;;5008880;28;20042;-79
2022/01/06 05:10:10;;;;;;;0.50;0.50;;;7.30;89.50;;;;;;4995391;28;20041;-79
2022/01/06 05:12:40;;;;;;;1.02;0.40;;;7.30;89.50;;;;;;5012857;28;20497;-78
2022/01/06 05:15:07;;;;;;;0.40;0.40;;;7.20;89.40;;;;;;5012671;28;20038;-79
2022/01/06 05:17:32;;;;;;;0.65;0.40;;;7.20;89.40;;;;;;5012068;28;20636;-79
2022/01/06 05:19:58;;;;;;;0.70;0.50;;;7.20;89.50;;;;;;4995046;28;20158;-79
2022/01/06 05:22:24;;;;;;;2.53;0.80;;;7.30;89.60;;;;;;5013317;28;20041;-79
2022/01/06 05:24:50;;;;;;;0.40;0.40;;;7.30;89.70;;;;;;5012405;28;20034;-79
2022/01/06 05:27:15;;;;;;;1.67;0.30;;;7.20;88.90;;;;;;5012317;28;20041;-79
2022/01/06 05:29:41;;;;;;;0.93;0.40;;;7.30;89.30;;;;;;5012274;28;20061;-78
2022/01/06 05:32:07;;;;;;;0.77;0.57;;;7.20;89.20;;;;;;5013117;28;20058;-78
2022/01/06 05:34:33;;;;;;;0.60;0.50;;;7.10;89.20;;;;;;5012939;28;20061;-78
2022/01/06 05:36:59;;;;;;;0.60;0.40;;;7.00;89.30;;;;;;5012498;28;20513;-78
2022/01/06 05:39:24;;;;;;;0.50;0.50;;;6.90;89.80;;;;;;4996053;28;20030;-78
2022/01/06 05:41:50;;;;;;;0.57;0.50;;;7.00;89.90;;;;;;5016615;28;20556;-78
2022/01/06 05:44:15;;;;;;;0.30;0.30;;;7.10;89.90;;;;;;5016645;28;20068;-78
2022/01/06 05:46:41;;;;;;;0.50;0.50;;;7.10;89.80;;;;;;5016323;28;20125;-78
2022/01/06 05:49:16;;;;;;;0.43;0.43;;;7.00;90.00;;;;;;5015999;28;20025;-78
2022/01/06 05:51:42;;;;;;;0.82;0.40;;;7.10;90.00;;;;;;4998559;28;20026;-78
2022/01/06 05:54:09;;;;;;;0.70;0.50;;;7.00;89.80;;;;;;4999093;28;20022;-78
2022/01/06 05:56:34;;;;;;;0.73;0.40;;;7.10;89.80;;;;;;5015414;28;20045;-79
2022/01/06 05:59:00;;;;;;;0.68;0.50;;;7.10;90.00;;;;;;5015820;28;20038;-78
2022/01/06 06:01:26;;;;;;;0.57;0.50;;;7.00;89.90;;;;;;5016114;28;20496;-78
2022/01/06 06:03:54;;;;;;;1.00;0.40;;;6.90;89.80;;;;;;5013471;28;20065;-79
2022/01/06 06:06:20;;;;;;;0.88;0.60;;;7.00;90.00;;;;;;5016091;28;20474;-79
2022/01/06 06:08:46;;;;;;;0.98;0.40;;;7.00;89.80;;;;;;4997942;28;20073;-78
2022/01/06 06:11:11;;;;;;;0.50;0.45;;;7.10;89.80;;;;;;5016046;28;20125;-77
2022/01/06 06:13:37;;;;;;;0.57;0.47;;;7.10;89.60;;;;;;5015992;28;20100;-79
2022/01/06 06:16:03;;;;;;;0.30;0.30;;;6.90;89.90;;;;;;5016106;28;20018;-78
2022/01/06 06:18:29;;;;;;;0.60;0.47;;;6.90;90.10;;;;;;5015218;28;20030;-77
2022/01/06 06:20:55;;;;;;;0.40;0.40;;;7.00;90.10;;;;;;5015472;28;20048;-78
2022/01/06 06:23:20;;;;;;;0.50;0.50;;;7.10;90.10;;;;;;5013631;28;20375;-78
2022/01/06 06:25:46;;;;;;;0.70;0.50;;;7.10;90.00;;;;;;5015503;28;20022;-79
2022/01/06 06:28:12;;;;;;;0.65;0.50;;;7.20;90.00;;;;;;5014257;28;20442;-78
2022/01/06 06:30:37;;;;;;;1.00;0.60;;;7.00;89.50;;;;;;4997256;28;20121;-79
2022/01/06 06:33:03;;;;;;;0.55;0.55;;;6.90;90.00;;;;;;5014851;28;20057;-79
2022/01/06 06:35:30;;;;;;;1.08;0.60;;;7.00;90.10;;;;;;5015216;28;20037;-79
2022/01/06 06:37:56;;;;;;;0.60;0.60;;;7.00;90.00;;;;;;5014994;28;20032;-78
2022/01/06 06:40:23;;;;;;;1.80;1.25;;;7.00;90.00;;;;;;4997228;28;20124;-79
2022/01/06 06:42:52;;;;;;;1.98;1.30;;;7.00;89.90;;;;;;5015246;28;20422;-79
2022/01/06 06:45:19;;;;;;;1.67;1.15;;;7.00;89.20;;;;;;5015614;28;20343;-81
2022/01/06 06:47:46;;;;;;;1.92;1.33;;;7.00;89.90;;;;;;5015391;28;20038;-81
2022/01/06 06:50:15;;;;;;;1.95;1.75;;;7.00;89.90;;;;;;5015441;28;20021;-81
2022/01/06 06:52:41;;;;;;;4.22;1.95;;;7.00;89.60;;;;;;5014489;28;20026;-80
2022/01/06 06:55:07;;;;;;;2.95;2.25;;;7.00;89.90;;;;;;5015242;28;20054;-81
2022/01/06 06:57:33;;;;;;;2.40;2.20;;;6.80;90.00;;;;;;4997257;28;20046;-81
2022/01/06 07:00:03;;;;;;;2.40;2.20;;;6.90;90.00;;;;;;5010102;28;20394;-81
2022/01/06 07:02:29;;;;;;;2.30;2.10;;;7.00;90.00;;;;;;5019474;28;20030;-79
2022/01/06 07:04:54;;;;;;;2.53;2.10;;;7.00;89.90;;;;;;5014126;28;20470;-79
2022/01/06 07:07:20;;;;;;;2.58;2.30;;;7.00;89.90;;;;;;5008101;28;20034;-75
2022/01/06 07:09:46;;;;;;;3.17;2.50;;;7.10;89.80;;;;;;4996544;28;20018;-75
2022/01/06 07:12:11;;;;;;;2.70;2.50;;;7.10;90.10;;;;;;5006774;22;20033;-76
2022/01/06 07:14:37;;;;;;;3.25;2.70;;;7.10;89.80;;;;;;5003227;28;20034;-76
2022/01/06 07:17:03;;;;;;;3.63;3.08;;;7.10;89.60;;;;;;4994502;28;20048;-76
2022/01/06 07:19:28;;;;;;;4.45;3.60;;;7.10;89.50;;;;;;5012263;28;20032;-77
2022/01/06 07:21:54;;;;;;;3.92;3.35;;;7.00;89.60;;;;;;5018072;28;20037;-77
2022/01/06 07:24:20;;;;;;;3.70;3.38;;;7.00;89.30;;;;;;4995608;28;20037;-77
2022/01/06 07:26:45;;;;;;;3.45;2.83;;;7.00;89.50;;;;;;5009164;28;20080;-76
2022/01/06 07:29:11;;;;;;;4.50;3.70;;;7.00;89.60;;;;;;5013801;28;20521;-77
2022/01/06 07:31:37;;;;;;;4.15;3.72;;;7.00;89.40;;;;;;5009818;28;20032;-77
2022/01/06 07:34:02;;;;;;;4.45;4.05;;;6.90;89.70;;;;;;5013695;28;20468;-77
2022/01/06 07:36:28;;;;;;;6.22;4.78;;;6.90;89.90;;;;;;4996216;28;20033;-77
2022/01/06 07:38:54;;;;;;;4.47;4.07;;;7.00;89.80;;;;;;5013856;28;20042;-77
2022/01/06 07:41:19;;;;;;;5.40;3.55;;;7.00;90.00;;;;;;5013982;28;20053;-77
2022/01/06 07:43:45;;;;;;;4.30;3.90;;;7.00;90.00;;;;;;5013561;28;20025;-79
2022/01/06 07:46:11;;;;;;;4.15;3.72;;;7.10;90.00;;;;;;5014292;28;20034;-77
2022/01/06 07:48:48;;;;;;;5.80;3.60;;;7.20;90.00;;;;;;5014412;28;20038;-77
2022/01/06 07:51:15;;;;;;;4.00;3.47;;;7.30;90.00;;;;;;5014545;28;20181;-82
2022/01/06 07:53:41;;;;;;;5.70;4.68;;;7.30;90.10;;;;;;5013329;28;20029;-78
2022/01/06 07:56:07;;;;;;;3.72;3.42;;;7.30;89.70;;;;;;5013772;28;20033;-78
2022/01/06 07:58:32;;;;;;;6.13;4.32;;;7.30;89.80;;;;;;4995924;28;20397;-78
2022/01/06 08:01:00;;;;;;;4.93;4.30;;;7.30;89.70;;;;;;5014570;28;20061;-84
2022/01/06 08:03:26;;;;;;;5.60;4.10;;;7.30;89.50;;;;;;5008774;28;20022;-78
2022/01/06 08:05:52;;;;;;;4.97;4.43;;;7.30;89.50;;;;;;4994860;28;20488;-77
2022/01/06 08:08:17;;;;;;;5.78;4.15;;;7.40;89.70;;;;;;5008972;28;20085;-83
2022/01/06 08:10:43;;;;;;;4.78;4.28;;;7.40;89.50;;;;;;5011842;28;20480;-77
2022/01/06 08:13:09;;;;;;;5.35;4.30;;;7.40;89.00;;;;;;5021074;28;20041;-78
2022/01/06 08:15:34;;;;;;;5.28;4.78;;;7.40;89.30;;;;;;5025429;28;20018;-78
2022/01/06 08:18:00;;;;;;;5.70;5.10;;;7.40;90.00;;;;;;4997225;28;20425;-78
2022/01/06 08:20:26;;;;;;;5.15;4.63;;;7.50;89.20;;;;;;5015616;28;20038;-83
2022/01/06 08:22:52;;;;;;;6.30;5.03;;;7.50;89.30;;;;;;4996608;28;20057;-76
2022/01/06 08:25:17;;;;;;;5.60;4.38;;;7.50;89.20;;;;;;5017824;28;20485;-78
2022/01/06 08:27:43;;;;;;;5.10;4.53;;;7.60;90.30;;;;;;5021460;28;20125;-84
2022/01/06 08:30:09;;;;;;;6.35;4.97;;;7.70;89.80;;;;;;4995771;28;20026;-83
2022/01/06 08:32:35;;;;;;;5.20;4.70;;;7.70;88.60;;;;;;5014778;28;20026;-83
2022/01/06 08:35:01;;;;;;;5.95;5.10;;;7.80;89.20;;;;;;5014721;28;20077;-77
2022/01/06 08:37:27;;;;;;;4.90;4.40;;;7.80;89.00;;;;;;5013283;28;20657;-77
2022/01/06 08:39:52;;;;;;;5.78;5.18;;;7.80;89.10;;;;;;5014042;28;20463;-77
2022/01/06 08:42:18;;;;;;;5.60;5.00;;;7.80;89.00;;;;;;5013487;28;20029;-77
2022/01/06 08:44:44;;;;;;;5.07;4.57;;;7.80;88.80;;;;;;5013288;28;20466;-78
2022/01/06 08:47:10;;;;;;;6.75;5.55;;;7.80;88.80;;;;;;5013265;28;20555;-78
2022/01/06 08:49:36;;;;;;;5.82;4.97;;;7.80;88.50;;;;;;5006487;28;20144;-77
2022/01/06 08:52:03;;;;;;;4.72;4.30;;;7.80;88.60;;;;;;4991624;28;20029;-77
2022/01/06 08:54:29;;;;;;;4.70;4.22;;;7.80;88.70;;;;;;4986503;28;20029;-78
2022/01/06 08:56:55;;;;;;;5.65;5.05;;;7.90;88.70;;;;;;4993072;28;20057;-79
2022/01/06 08:59:20;;;;;;;5.57;5.05;;;7.90;88.70;;;;;;5013609;28;20097;-78
2022/01/06 09:01:46;;;;;;;4.72;4.20;;;8.00;88.60;;;;;;5012762;28;20037;-77
2022/01/06 09:04:12;;;;;;;6.97;6.28;;;7.90;88.40;;;;;;4992591;28;20030;-78
2022/01/06 09:06:37;;;;;;;6.07;5.20;;;7.90;87.70;;;;;;5001795;28;20030;-78
2022/01/06 09:09:03;;;;;;;5.55;4.75;;;7.90;88.40;;;;;;5013260;28;20498;-78
2022/01/06 09:11:29;;;;;;;5.32;4.82;;;8.00;88.50;;;;;;5013223;28;20057;-78
2022/01/06 09:13:55;;;;;;;6.05;5.45;;;8.00;88.50;;;;;;5013190;28;20077;-78
2022/01/06 09:16:21;;;;;;;6.95;5.28;;;8.10;88.20;;;;;;5010817;28;20080;-78
2022/01/06 09:18:46;;;;;;;6.72;5.60;;;8.10;88.50;;;;;;5016817;28;20033;-79
2022/01/06 09:21:12;;;;;;;6.30;5.70;;;8.20;88.70;;;;;;5017366;28;20108;-82
2022/01/06 09:23:39;;;;;;;6.22;5.63;;;8.30;88.20;;;;;;5017541;28;20057;-78
2022/01/06 09:26:04;;;;;;;5.65;5.07;;;8.30;88.30;;;;;;5009153;28;20032;-78
2022/01/06 09:28:30;;;;;;;6.45;5.20;;;8.40;88.30;;;;;;5017071;28;20526;-78
2022/01/06 09:30:57;;;;;;;6.53;5.50;;;8.40;87.90;;;;;;5009280;28;20048;-77
2022/01/06 09:33:23;;;;;;;6.55;5.93;;;8.50;87.00;;;;;;5017128;28;20865;-78
2022/01/06 09:35:52;;;;;;;6.47;5.78;;;8.50;87.10;;;;;;5017084;28;20030;-78
2022/01/06 09:38:18;;;;;;;5.00;4.60;;;8.50;86.90;;;;;;5016917;28;20022;-78
2022/01/06 09:40:44;;;;;;;5.78;4.90;;;8.50;87.10;;;;;;5017284;28;20530;-78
2022/01/06 09:43:12;;;;;;;5.38;4.88;;;8.60;87.70;;;;;;5017248;28;20033;-78
2022/01/06 09:45:39;;;;;;;5.93;5.20;;;8.70;87.20;;;;;;5013637;28;20150;-79
2022/01/06 09:48:05;;;;;;;6.10;4.68;;;8.80;87.50;;;;;;5016704;28;20454;-85
2022/01/06 09:50:32;;;;;;;5.82;5.07;;;8.90;87.20;;;;;;4998243;28;20108;-85
2022/01/06 09:52:58;;;;;;;5.10;4.60;;;9.00;86.50;;;;;;5016781;28;20082;-83
2022/01/06 09:55:24;;;;;;;7.78;6.07;;;8.90;85.00;;;;;;5010326;28;21887;-77
2022/01/06 09:57:59;;;;;;;5.05;4.55;;;9.00;84.40;;;;;;4997709;28;20129;-77
2022/01/06 10:00:31;;;;;;;5.15;4.65;;;9.10;85.40;;;;;;4998412;28;20331;-77
2022/01/06 10:03:00;;;;;;;5.40;4.53;;;9.20;85.60;;;;;;4988850;28;20129;-78
2022/01/06 10:05:26;;;;;;;5.72;4.78;;;9.30;85.20;;;;;;5000936;28;20026;-77
2022/01/06 10:07:55;;;;;;;6.75;5.85;;;9.30;83.90;;;;;;5000682;28;20034;-77
2022/01/06 10:10:27;;;;;;;7.13;6.28;;;9.30;82.00;;;;;;5011641;28;20107;-77
2022/01/06 10:12:57;;;;;;;4.90;4.40;;;9.30;81.80;;;;;;5001485;28;20038;-78
2022/01/06 10:15:25;;;;;;;6.78;6.05;;;9.30;83.00;;;;;;5006044;28;20022;-77
2022/01/06 10:17:51;;;;;;;7.15;5.90;;;9.40;82.60;;;;;;5011338;28;20038;-77
2022/01/06 10:20:20;;;;;;;6.13;5.53;;;9.50;81.90;;;;;;5011121;28;20417;-77
2022/01/06 10:22:55;;;;;;;5.72;5.10;;;9.60;82.70;;;;;;5008288;28;20022;-77
2022/01/06 10:25:22;;;;;;;5.82;4.95;;;9.70;81.80;;;;;;5007244;28;20045;-77
2022/01/06 10:27:49;;;;;;;5.38;4.68;;;9.80;82.50;;;;;;5002121;28;20046;-77
2022/01/06 10:30:16;;;;;;;6.95;5.70;;;9.80;82.40;;;;;;4997138;28;20053;-77
2022/01/06 10:32:43;;;;;;;6.03;5.43;;;10.00;82.00;;;;;;5011856;28;20023;-77
2022/01/06 10:35:10;;;;;;;5.13;4.70;;;10.20;80.40;;;;;;5015310;28;20080;-77
2022/01/06 10:37:40;;;;;;;5.13;4.63;;;10.10;79.30;;;;;;5008556;28;20026;-77
2022/01/06 10:40:19;;;;;;;4.93;4.43;;;10.30;78.60;;;;;;4996488;28;20577;-77
2022/01/06 10:42:50;;;;;;;4.50;3.78;;;10.40;77.60;;;;;;5003325;28;20041;-76
2022/01/06 10:45:25;;;;;;;4.60;3.60;;;10.70;78.20;;;;;;5007388;28;20025;-76
2022/01/06 10:47:54;;;;;;;3.80;3.17;;;10.90;77.20;;;;;;5009949;28;20026;-77
2022/01/06 10:50:21;;;;;;;3.58;3.22;;;11.10;77.70;;;;;;4997210;28;20413;-76
2022/01/06 10:52:54;;;;;;;3.85;3.45;;;11.40;76.70;;;;;;5011584;28;20034;-78
2022/01/06 10:55:28;;;;;;;3.75;3.45;;;11.30;73.30;;;;;;5013915;28;20473;-83
2022/01/06 10:58:10;;;;;;;3.10;2.80;;;11.40;72.30;;;;;;5004942;28;20486;-82
2022/01/06 11:00:35;;;;;;;4.18;3.78;;;11.60;73.00;;;;;;5015733;28;20037;-83
2022/01/06 11:03:11;;;;;;;3.63;3.33;;;11.40;67.80;;;;;;5013982;28;20382;-83
2022/01/06 11:05:51;;;;;;;3.10;2.80;;;11.40;68.10;;;;;;5013899;28;20034;-81
2022/01/06 11:08:26;;;;;;;2.88;2.55;;;11.40;69.40;;;;;;5013907;28;20080;-81
2022/01/06 11:13:43;;;;;;;3.63;2.30;;;11.90;67.70;;;;;;5013696;28;20069;-79
2022/01/06 11:16:12;;;;;;;2.72;2.40;;;12.30;73.20;;;;;;5008181;28;20436;-84
2022/01/06 11:18:43;;;;;;;2.90;2.53;;;12.50;72.80;;;;;;5014077;28;20018;-79
2022/01/06 11:21:14;;;;;;;3.13;2.83;;;12.70;72.10;;;;;;5008855;28;20092;-82
2022/01/06 11:23:40;;;;;;;2.92;2.60;;;13.10;72.60;;;;;;5014160;28;20022;-79
2022/01/06 11:26:09;;;;;;;4.00;2.85;;;13.20;66.80;;;;;;5014442;28;20094;-79
2022/01/06 11:28:35;;;;;;;2.50;2.25;;;12.80;61.90;;;;;;4996069;28;20041;-78
2022/01/06 11:31:19;;;;;;;3.40;2.00;;;12.50;64.90;;;;;;5013538;28;20018;-78
2022/01/06 11:33:48;;;;;;;2.63;2.30;;;12.70;64.70;;;;;;5013236;28;20113;-79
2022/01/06 11:36:20;;;;;;;2.85;1.95;;;12.90;63.00;;;;;;4996160;28;20034;-79
2022/01/06 11:38:50;;;;;;;1.90;1.70;;;13.10;66.90;;;;;;5013695;28;20105;-78
2022/01/06 11:41:16;;;;;;;2.10;1.90;;;13.30;65.60;;;;;;5014336;28;20026;-79
2022/01/06 11:43:45;;;;;;;2.65;1.80;;;13.40;64.80;;;;;;5013369;28;20386;-79
2022/01/06 11:46:13;;;;;;;2.67;1.90;;;13.40;64.90;;;;;;5014230;28;20030;-79
2022/01/06 11:49:05;;;;;;;1.95;1.67;;;13.30;63.20;;;;;;5012664;28;20493;-79
2022/01/06 11:51:32;;;;;;;2.45;1.67;;;13.40;63.00;;;;;;4992056;28;20046;-79
2022/01/06 11:54:10;;;;;;;1.83;1.58;;;13.80;61.00;;;;;;5012670;28;20022;-80
2022/01/06 11:56:47;;;;;;;1.95;1.45;;;13.80;58.20;;;;;;5022847;28;20501;-79
2022/01/06 11:59:13;;;;;;;2.25;1.90;;;14.60;58.10;;;;;;5018174;28;20374;-80
2022/01/06 12:01:51;;;;;;;2.67;1.60;;;15.40;59.60;;;;;;5008428;28;20026;-79
2022/01/06 12:04:19;;;;;;;1.70;1.60;;;16.00;54.90;;;;;;4991147;28;20038;-79
2022/01/06 12:06:45;;;;;;;1.20;1.10;;;16.30;55.10;;;;;;5009046;28;20040;-79
2022/01/06 12:09:19;;;;;;;2.83;1.30;;;16.30;54.60;;;;;;5000012;28;20029;-79
2022/01/06 12:11:46;;;;;;;1.42;1.10;;;16.20;54.40;;;;;;4995252;28;20524;-79
2022/01/06 12:14:12;;;;;;;1.52;1.30;;;16.10;53.60;;;;;;4995043;28;20044;-80
2022/01/06 12:16:43;;;;;;;1.52;1.15;;;16.00;53.30;;;;;;5012087;28;20030;-79
2022/01/06 12:19:20;;;;;;;0.90;0.80;;;16.00;53.50;;;;;;5011025;28;20454;-79
2022/01/06 12:21:47;;;;;;;1.13;0.80;;;16.00;52.70;;;;;;5012726;28;20033;-79
2022/01/06 12:24:13;;;;;;;1.45;0.98;;;16.30;52.00;;;;;;4987442;28;20061;-79
2022/01/06 12:26:40;;;;;;;1.20;0.90;;;16.70;51.20;;;;;;5005235;28;20045;-79
2022/01/06 12:29:20;;;;;;;1.50;0.88;;;17.10;50.20;;;;;;4991914;28;20379;-79
2022/01/06 12:31:47;;;;;;;1.27;0.70;;;17.50;48.50;;;;;;5003984;28;20038;-79
2022/01/06 12:34:15;;;;;;;1.40;0.85;;;17.50;47.50;;;;;;5005119;28;20037;-79
2022/01/06 12:36:43;;;;;;;0.98;0.82;;;17.30;47.00;;;;;;4996089;28;20022;-79
2022/01/06 12:39:18;;;;;;;0.70;0.60;;;17.10;48.40;;;;;;4995529;28;20053;-79
2022/01/06 12:41:46;;;;;;;1.45;0.93;;;16.80;48.20;;;;;;5002862;28;20109;-78
2022/01/06 12:44:19;;;;;;;1.35;0.60;;;16.80;48.30;;;;;;4990838;28;20038;-79
2022/01/06 12:46:45;;;;;;;0.77;0.70;;;17.10;48.20;;;;;;5001359;28;20041;-78
2022/01/06 12:49:12;;;;;;;2.30;0.95;;;17.40;45.10;;;;;;5003149;28;20500;-79
2022/01/06 12:51:44;;;;;;;1.23;0.70;;;17.70;46.60;;;;;;5005747;28;20097;-80
2022/01/06 12:54:17;;;;;;;1.60;0.73;;;18.00;47.50;;;;;;4992230;28;20036;-79
2022/01/06 12:56:53;;;;;;;1.17;0.65;;;18.30;47.10;;;;;;5008786;28;20033;-79
2022/01/06 12:59:37;;;;;;;0.70;0.63;;;18.40;40.90;;;;;;4994757;28;20065;-79
2022/01/06 13:02:13;;;;;;;0.93;0.60;;;18.50;44.70;;;;;;5012128;28;20029;-79